Hangaard, Minnesota
Current Conditions -  °F | °C
As of 12:55 PM on Saturday 25 Oct 2014 (Local Time) from KFSE Reporting Station
Clear Clear  
Wind Chill: 12°   Ceiling: Unl
Heat Index: 12°   Visibility: 10mi
Dew Point: -3°   Wind: 18mph
Humidity: 35%   Direction: 300°WNW
Pressure: 30.06"   Gusts: 28mph
Location:  47.8469°N, 95.4815°W
Report Text: KFSE 251755Z AUTO 30016G24KT 10SM CLR 12/M03 A3006 RMK AO2
Loading
Personal Weather Stations






























Interactive Weather Map
Tropical Storm Tracking
New forecast layout! Learn more

10-Day Weather Forecast

Advertisements
Track Severe Weather on mobile